Time;durP1;ratioP1;P1;durP2;ratioP2;P2;SDS_P1;SDS_P2;PMS_P1;PMS_P2;Temp;Humidity;BMP_temperature;BMP_pressure;BME280_temperature;BME280_humidity;BME280_pressure;Samples;Min_cycle;Max_cycle;Signal;HPM_P1;HPM_P2
2022/03/09 00:01:50;;;;;;;1.48;1.45;;;-0.90;99.90;;;-143.19;100.00;53775.09;4970814;28;20240;-73
2022/03/09 00:04:18;;;;;;;0.57;0.57;;;-1.00;99.90;;;-143.19;100.00;53775.09;4973498;28;20220;-73
2022/03/09 00:06:46;;;;;;;0.60;0.60;;;-1.00;99.90;;;-143.19;100.00;53775.09;4966878;28;20218;-73
2022/03/09 00:09:14;;;;;;;0.80;0.80;;;-0.90;99.90;;;-143.19;100.00;53775.09;4972397;28;20596;-73
2022/03/09 00:11:43;;;;;;;0.60;0.60;;;-1.00;99.90;;;-143.19;100.00;53775.09;4972343;28;20205;-73
2022/03/09 00:14:10;;;;;;;0.50;0.50;;;-1.00;99.90;;;-143.19;100.00;53775.09;4957020;28;20205;-73
2022/03/09 00:16:38;;;;;;;0.70;0.70;;;-1.00;99.90;;;-143.19;100.00;53775.09;4972656;28;20209;-73
2022/03/09 00:19:09;;;;;;;0.63;0.63;;;-1.10;99.90;;;-143.19;100.00;53775.09;4969355;28;20237;-73
2022/03/09 00:21:37;;;;;;;0.50;0.50;;;-1.20;99.90;;;-143.19;100.00;53775.09;4965486;28;20229;-73
2022/03/09 00:24:06;;;;;;;0.50;0.50;;;-1.20;99.90;;;-143.19;100.00;53775.09;4971258;28;20201;-73
2022/03/09 00:26:34;;;;;;;0.55;0.55;;;-1.00;99.90;;;-143.19;100.00;53775.09;4977613;28;20212;-73
2022/03/09 00:29:02;;;;;;;0.60;0.60;;;-1.10;99.90;;;-143.19;100.00;53775.09;4971478;28;20229;-73
2022/03/09 00:31:31;;;;;;;0.60;0.60;;;-1.10;99.90;;;-143.19;100.00;53775.09;4972588;28;20587;-73
2022/03/09 00:33:59;;;;;;;0.60;0.60;;;-1.20;99.90;;;-143.19;100.00;53775.09;4973168;28;20220;-73
2022/03/09 00:36:27;;;;;;;0.65;0.65;;;-1.30;99.90;;;-143.19;100.00;53775.09;4972813;28;20213;-73
2022/03/09 00:38:56;;;;;;;0.95;0.95;;;-1.30;99.90;;;-143.19;100.00;53775.09;4978225;28;20217;-73
2022/03/09 00:41:24;;;;;;;0.50;0.50;;;-1.30;99.90;;;-143.19;100.00;53775.09;4972054;28;20229;-73
2022/03/09 00:43:53;;;;;;;0.50;0.50;;;-1.40;99.90;;;-143.19;100.00;53775.09;4972857;28;20210;-73
2022/03/09 00:46:22;;;;;;;0.60;0.60;;;-1.30;99.90;;;-143.19;100.00;53775.09;4972585;28;20219;-73
2022/03/09 00:48:50;;;;;;;1.13;1.02;;;-1.30;99.90;;;-143.19;100.00;53775.09;4975030;28;20217;-73
2022/03/09 00:51:18;;;;;;;0.52;0.52;;;-1.20;99.90;;;-143.19;100.00;53775.09;4980562;28;20221;-73
2022/03/09 00:53:46;;;;;;;0.60;0.60;;;-1.20;99.90;;;-143.19;100.00;53775.09;4939352;28;20662;-73
2022/03/09 00:56:14;;;;;;;0.50;0.50;;;-1.30;99.90;;;-143.19;100.00;53775.09;4955490;28;20666;-73
2022/03/09 00:58:42;;;;;;;0.60;0.60;;;-1.30;99.90;;;-143.19;100.00;53775.09;4971442;28;20209;-73
2022/03/09 01:01:11;;;;;;;0.60;0.60;;;-1.30;99.90;;;-143.19;100.00;53775.09;4968602;28;20225;-74
2022/03/09 01:03:42;;;;;;;0.60;0.60;;;-1.30;99.90;;;-143.19;100.00;53775.09;4971780;28;20205;-73
2022/03/09 01:06:10;;;;;;;0.70;0.70;;;-1.30;99.90;;;-143.19;100.00;53775.09;4972401;28;20212;-74
2022/03/09 01:08:38;;;;;;;0.55;0.55;;;-1.20;99.90;;;-143.19;100.00;53775.09;4971649;28;20202;-73
2022/03/09 01:11:06;;;;;;;0.50;0.50;;;-1.20;99.90;;;-143.19;100.00;53775.09;4972388;28;20232;-73
2022/03/09 01:13:34;;;;;;;0.65;0.65;;;-1.30;99.90;;;-143.19;100.00;53775.09;4968950;28;20244;-73
2022/03/09 01:16:02;;;;;;;0.60;0.60;;;-1.40;99.90;;;-143.19;100.00;53775.09;4955304;28;20209;-73
2022/03/09 01:18:31;;;;;;;0.50;0.50;;;-1.50;99.90;;;-143.19;100.00;53775.09;4948042;28;20220;-73
2022/03/09 01:20:59;;;;;;;0.52;0.52;;;-1.40;99.90;;;-143.19;100.00;53775.09;4964468;28;20711;-74
2022/03/09 01:23:28;;;;;;;0.60;0.60;;;-1.40;99.90;;;-143.19;100.00;53775.09;4981886;28;20220;-74
2022/03/09 01:25:56;;;;;;;0.50;0.50;;;-1.40;99.90;;;-143.19;100.00;53775.09;4968699;28;20205;-74
2022/03/09 01:28:24;;;;;;;0.60;0.60;;;-1.30;99.90;;;-143.19;100.00;53775.09;4976822;28;20217;-75
2022/03/09 01:30:52;;;;;;;0.50;0.50;;;-1.30;99.90;;;-143.19;100.00;53775.09;4975653;28;20236;-75
2022/03/09 01:33:20;;;;;;;0.50;0.50;;;-1.20;99.90;;;-143.19;100.00;53775.09;4976336;28;20213;-74
2022/03/09 01:35:50;;;;;;;0.60;0.60;;;-1.20;99.90;;;-143.19;100.00;53775.09;4970147;28;20217;-74
2022/03/09 01:38:18;;;;;;;0.60;0.60;;;-1.10;99.90;;;-143.19;100.00;53775.09;4976044;28;20216;-74
2022/03/09 01:40:46;;;;;;;0.60;0.60;;;-1.10;99.90;;;-143.19;100.00;53775.09;4974816;28;20240;-74
2022/03/09 01:43:15;;;;;;;0.60;0.60;;;-1.10;99.90;;;-143.19;100.00;53775.09;4972140;28;20212;-74
2022/03/09 01:45:43;;;;;;;0.70;0.70;;;-1.20;99.90;;;-143.19;100.00;53775.09;4964502;28;20209;-74
2022/03/09 01:48:11;;;;;;;0.50;0.50;;;-1.40;99.90;;;-143.19;100.00;53775.09;4974073;28;20204;-74
2022/03/09 01:50:40;;;;;;;0.50;0.50;;;-1.30;99.90;;;-143.19;100.00;53775.09;4957370;28;20229;-74
2022/03/09 01:53:08;;;;;;;1.13;1.13;;;-1.20;99.90;;;-143.19;100.00;53775.09;4973868;28;20205;-74
2022/03/09 01:55:38;;;;;;;0.50;0.50;;;-1.30;99.90;;;-143.19;100.00;53775.09;4937382;28;20205;-74
2022/03/09 01:58:06;;;;;;;0.50;0.50;;;-1.20;99.90;;;-143.19;100.00;53775.09;4975704;28;20209;-74
2022/03/09 02:00:35;;;;;;;0.85;0.85;;;-1.00;99.90;;;-143.19;100.00;53775.09;4974307;28;20225;-74
2022/03/09 02:03:03;;;;;;;2.25;2.15;;;-0.90;99.90;;;-143.19;100.00;53775.09;4975193;28;20209;-74
2022/03/09 02:05:34;;;;;;;0.80;0.80;;;-0.80;99.90;;;-143.19;100.00;53775.09;4963306;28;20585;-74
2022/03/09 02:10:51;;;;;;;0.57;0.57;;;-0.70;99.90;;;-143.19;100.00;53775.09;4972056;28;20225;-74
2022/03/09 02:13:19;;;;;;;0.50;0.50;;;-0.70;99.90;;;-143.19;100.00;53775.09;4958624;28;20220;-74
2022/03/09 02:15:51;;;;;;;0.50;0.50;;;-0.60;99.90;;;-143.19;100.00;53775.09;4976698;28;20209;-74
2022/03/09 02:18:19;;;;;;;0.60;0.60;;;-0.70;99.90;;;-143.19;100.00;53775.09;4978261;28;20225;-74
2022/03/09 02:20:49;;;;;;;0.70;0.70;;;-0.70;99.90;;;-143.19;100.00;53775.09;4963539;28;20232;-74
2022/03/09 02:23:17;;;;;;;0.68;0.68;;;-0.70;99.90;;;-143.19;100.00;53775.09;4950774;29;20612;-74
2022/03/09 02:25:46;;;;;;;0.57;0.57;;;-0.80;99.90;;;-143.19;100.00;53775.09;4971282;28;20228;-74
2022/03/09 02:28:13;;;;;;;0.60;0.60;;;-1.00;99.90;;;-143.19;100.00;53775.09;4957908;28;20213;-74
2022/03/09 02:30:41;;;;;;;0.52;0.52;;;-1.00;99.90;;;-143.19;100.00;53775.09;4969722;28;20311;-73
2022/03/09 02:33:10;;;;;;;0.52;0.52;;;-1.10;99.90;;;-143.19;100.00;53775.09;4977277;28;20204;-74
2022/03/09 02:35:38;;;;;;;0.60;0.60;;;-1.20;99.90;;;-143.19;100.00;53775.09;4989750;28;20204;-74
2022/03/09 02:38:09;;;;;;;0.60;0.60;;;-1.40;99.90;;;-143.19;100.00;53775.09;4971102;28;20201;-74
2022/03/09 02:40:37;;;;;;;0.60;0.60;;;-1.40;99.90;;;-143.19;100.00;53775.09;4974025;28;20228;-74
2022/03/09 02:43:05;;;;;;;0.60;0.60;;;-1.50;99.90;;;-143.19;100.00;53775.09;4972638;28;20233;-74
2022/03/09 02:45:33;;;;;;;0.60;0.60;;;-1.20;99.90;;;-143.19;100.00;53775.09;4970099;28;20303;-74
2022/03/09 02:48:01;;;;;;;0.50;0.50;;;-1.20;99.90;;;-143.19;100.00;53775.09;4958157;28;20220;-74
2022/03/09 02:50:30;;;;;;;0.60;0.60;;;-1.30;99.90;;;-143.19;100.00;53775.09;4970016;28;20238;-74
2022/03/09 02:52:58;;;;;;;0.60;0.60;;;-1.40;99.90;;;-143.19;100.00;53775.09;4978041;28;20220;-74
2022/03/09 02:55:26;;;;;;;0.50;0.50;;;-1.50;99.90;;;-143.19;100.00;53775.09;4973447;28;20206;-74
2022/03/09 02:57:55;;;;;;;0.60;0.60;;;-1.60;99.90;;;-143.19;100.00;53775.09;4934992;28;20206;-74
2022/03/09 03:00:23;;;;;;;0.60;0.60;;;-1.60;99.90;;;-143.19;100.00;53775.09;4973100;28;20225;-73
2022/03/09 03:02:51;;;;;;;0.50;0.50;;;-1.70;99.90;;;-143.19;100.00;53775.09;4974960;28;20239;-74
2022/03/09 03:05:19;;;;;;;0.50;0.50;;;-1.70;99.90;;;-143.19;100.00;53775.09;4966331;28;20681;-74
2022/03/09 03:07:47;;;;;;;0.60;0.60;;;-1.80;99.90;;;-143.19;100.00;53775.09;4972861;28;20201;-74
2022/03/09 03:10:15;;;;;;;0.50;0.50;;;-1.70;99.90;;;-143.19;100.00;53775.09;4971651;28;20233;-74
2022/03/09 03:12:45;;;;;;;0.50;0.50;;;-1.80;99.90;;;-143.19;100.00;53775.09;4972138;28;20212;-73
2022/03/09 03:15:13;;;;;;;0.60;0.60;;;-1.80;99.90;;;-143.19;100.00;53775.09;4970974;28;20213;-74
2022/03/09 03:17:41;;;;;;;0.60;0.60;;;-1.90;99.90;;;-143.19;100.00;53775.09;4966483;28;20205;-74
2022/03/09 03:20:10;;;;;;;0.50;0.50;;;-1.90;99.90;;;-143.19;100.00;53775.09;4971528;28;20227;-74
2022/03/09 03:22:38;;;;;;;0.68;0.68;;;-1.80;99.90;;;-143.19;100.00;53775.09;4957312;28;20248;-73
2022/03/09 03:25:06;;;;;;;0.65;0.65;;;-1.80;99.90;;;-143.19;100.00;53775.09;4973324;28;20200;-74
2022/03/09 03:27:34;;;;;;;0.60;0.60;;;-1.90;99.90;;;-143.19;100.00;53775.09;4971475;28;20214;-73
2022/03/09 03:30:03;;;;;;;0.57;0.57;;;-1.90;99.90;;;-143.19;100.00;53775.09;4970708;28;20229;-73
2022/03/09 03:32:31;;;;;;;0.40;0.40;;;-2.00;99.90;;;-143.19;100.00;53775.09;4970400;28;20237;-74
2022/03/09 03:34:59;;;;;;;0.50;0.50;;;-2.00;99.90;;;-143.19;100.00;53775.09;4974762;28;20213;-74
2022/03/09 03:37:27;;;;;;;0.70;0.70;;;-2.00;99.90;;;-143.19;100.00;53775.09;4954960;28;20202;-74
2022/03/09 03:39:55;;;;;;;0.50;0.50;;;-2.10;99.90;;;-143.19;100.00;53775.09;4972262;28;20248;-78
2022/03/09 03:42:23;;;;;;;0.68;0.68;;;-2.10;99.90;;;-143.19;100.00;53775.09;4971681;28;20229;-74
2022/03/09 03:44:54;;;;;;;0.63;0.63;;;-2.10;99.90;;;-143.19;100.00;53775.09;4973904;28;20662;-74
2022/03/09 03:47:22;;;;;;;0.63;0.63;;;-2.00;99.90;;;-143.19;100.00;53775.09;4954545;28;20221;-73
2022/03/09 03:49:50;;;;;;;0.65;0.65;;;-2.10;99.90;;;-143.19;100.00;53775.09;4967656;28;20240;-73
2022/03/09 03:52:19;;;;;;;0.60;0.60;;;-2.10;99.90;;;-143.19;100.00;53775.09;4952724;28;20228;-74
2022/03/09 03:54:47;;;;;;;0.75;0.75;;;-2.20;99.90;;;-143.19;100.00;53775.09;4962875;28;20206;-74
2022/03/09 03:57:15;;;;;;;0.70;0.70;;;-2.30;99.90;;;-143.19;100.00;53775.09;4970653;28;20213;-74
2022/03/09 03:59:43;;;;;;;0.60;0.60;;;-2.30;99.90;;;-143.19;100.00;53775.09;4973243;28;20228;-74
2022/03/09 04:02:11;;;;;;;0.68;0.68;;;-2.30;99.90;;;-143.19;100.00;53775.09;4970655;28;20226;-73
2022/03/09 04:04:39;;;;;;;0.60;0.60;;;-2.40;99.90;;;-143.19;100.00;53775.09;4969022;28;20213;-74
2022/03/09 04:07:07;;;;;;;0.60;0.60;;;-2.50;99.90;;;-143.19;100.00;53775.09;4965447;28;20220;-73
2022/03/09 04:09:35;;;;;;;0.70;0.70;;;-2.50;99.90;;;-143.19;100.00;53775.09;4954662;28;20221;-74
2022/03/09 04:12:03;;;;;;;0.60;0.60;;;-2.40;99.90;;;-143.19;100.00;53775.09;4971915;28;20208;-74
2022/03/09 04:14:31;;;;;;;0.63;0.63;;;-2.20;99.90;;;-143.19;100.00;53775.09;4970086;28;20205;-74
2022/03/09 04:17:00;;;;;;;0.70;0.70;;;-2.20;99.90;;;-143.19;100.00;53775.09;4973095;28;20209;-75
2022/03/09 04:19:28;;;;;;;1.00;1.00;;;-2.30;99.90;;;-143.19;100.00;53775.09;4969230;28;20245;-73
2022/03/09 04:21:57;;;;;;;0.80;0.80;;;-2.30;99.90;;;-143.19;100.00;53775.09;4951573;28;20693;-74
2022/03/09 04:24:26;;;;;;;0.60;0.60;;;-2.30;99.90;;;-143.19;100.00;53775.09;4970003;28;20212;-76
2022/03/09 04:26:54;;;;;;;0.70;0.70;;;-2.40;99.90;;;-143.19;100.00;53775.09;4969589;28;20212;-76
2022/03/09 04:29:22;;;;;;;0.70;0.70;;;-2.30;99.90;;;-143.19;100.00;53775.09;4966627;28;20230;-76
2022/03/09 04:31:50;;;;;;;0.70;0.70;;;-2.30;99.90;;;-143.19;100.00;53775.09;4955745;28;20209;-74
2022/03/09 04:34:19;;;;;;;0.73;0.73;;;-2.40;99.90;;;-143.19;100.00;53775.09;4962969;28;20224;-74
2022/03/09 04:36:47;;;;;;;0.63;0.63;;;-2.40;99.90;;;-143.19;100.00;53775.09;4939826;28;20212;-74
2022/03/09 04:39:15;;;;;;;0.70;0.70;;;-2.40;99.90;;;-143.19;100.00;53775.09;4966085;28;20240;-74
2022/03/09 04:41:43;;;;;;;0.80;0.80;;;-2.50;99.90;;;-143.19;100.00;53775.09;4965382;28;20201;-74
2022/03/09 04:44:11;;;;;;;0.70;0.70;;;-2.60;99.90;;;-143.19;100.00;53775.09;4959986;28;20243;-74
2022/03/09 04:46:39;;;;;;;0.80;0.80;;;-2.50;99.90;;;-143.19;100.00;53775.09;4970218;28;20232;-74
2022/03/09 04:49:07;;;;;;;0.63;0.63;;;-2.60;99.90;;;-143.19;100.00;53775.09;4969355;28;20233;-75
2022/03/09 04:51:36;;;;;;;0.57;0.57;;;-2.70;99.90;;;-143.19;100.00;53775.09;4973854;28;20212;-74
2022/03/09 04:54:04;;;;;;;0.73;0.73;;;-2.80;99.90;;;-143.19;100.00;53775.09;4972777;28;20205;-74
2022/03/09 04:56:32;;;;;;;0.60;0.60;;;-2.80;99.90;;;-143.19;100.00;53775.09;4973197;28;20209;-74
2022/03/09 04:59:00;;;;;;;0.90;0.90;;;-2.60;99.90;;;-143.19;100.00;53775.09;4951210;28;20244;-75
2022/03/09 05:01:30;;;;;;;0.70;0.70;;;-2.70;99.90;;;-143.19;100.00;53775.09;4964504;28;20201;-74
2022/03/09 05:03:58;;;;;;;0.90;0.90;;;-2.90;99.90;;;-143.19;100.00;53775.09;4966872;28;20226;-76
2022/03/09 05:06:26;;;;;;;0.63;0.63;;;-2.90;99.90;;;-143.19;100.00;53775.09;4950792;28;20209;-76
2022/03/09 05:08:54;;;;;;;0.90;0.90;;;-2.90;99.90;;;-143.19;100.00;53775.09;4969337;28;20228;-76
2022/03/09 05:11:23;;;;;;;0.60;0.60;;;-3.00;99.90;;;-143.19;100.00;53775.09;4952798;28;20210;-76
2022/03/09 05:13:51;;;;;;;0.75;0.75;;;-3.00;99.90;;;-143.19;100.00;53775.09;4954017;28;20232;-74
2022/03/09 05:16:19;;;;;;;0.70;0.70;;;-2.90;99.90;;;-143.19;100.00;53775.09;4948466;28;20209;-74
2022/03/09 05:18:47;;;;;;;1.17;1.08;;;-2.90;99.90;;;-143.19;100.00;53775.09;4966545;28;20220;-74
2022/03/09 05:21:15;;;;;;;0.60;0.60;;;-3.00;99.90;;;-143.19;100.00;53775.09;4971879;28;20211;-75
2022/03/09 05:23:43;;;;;;;0.63;0.63;;;-3.00;99.90;;;-143.19;100.00;53775.09;4968075;28;20229;-74
2022/03/09 05:26:11;;;;;;;0.60;0.60;;;-3.00;99.90;;;-143.19;100.00;53775.09;4952298;28;20206;-74
2022/03/09 05:28:39;;;;;;;0.70;0.70;;;-3.00;99.90;;;-143.19;100.00;53775.09;4968577;28;20215;-74
2022/03/09 05:31:07;;;;;;;0.80;0.80;;;-3.10;99.90;;;-143.19;100.00;53775.09;4967358;28;20202;-74
2022/03/09 05:33:36;;;;;;;0.70;0.70;;;-3.00;99.90;;;-143.19;100.00;53775.09;4968536;28;20220;-74
2022/03/09 05:36:04;;;;;;;0.60;0.60;;;-3.00;99.90;;;-143.19;100.00;53775.09;4972368;28;20216;-74
2022/03/09 05:38:33;;;;;;;0.70;0.70;;;-3.00;99.90;;;-143.19;100.00;53775.09;4963185;28;20209;-74
2022/03/09 05:41:01;;;;;;;0.68;0.68;;;-2.90;99.90;;;-143.19;100.00;53775.09;4954800;28;20244;-75
2022/03/09 05:43:29;;;;;;;0.80;0.80;;;-3.20;99.90;;;-143.19;100.00;53775.09;4969734;28;20697;-74
2022/03/09 05:45:57;;;;;;;0.70;0.70;;;-3.30;99.90;;;-143.19;100.00;53775.09;4970977;28;20202;-74
2022/03/09 05:48:25;;;;;;;0.57;0.57;;;-3.30;99.90;;;-143.19;100.00;53775.09;4967813;28;20233;-74
2022/03/09 05:50:53;;;;;;;0.70;0.70;;;-3.30;99.90;;;-143.19;100.00;53775.09;4970310;28;20231;-74
2022/03/09 05:53:21;;;;;;;0.85;0.85;;;-3.30;99.90;;;-143.19;100.00;53775.09;4978646;28;20226;-74
2022/03/09 05:55:49;;;;;;;0.70;0.70;;;-3.30;99.90;;;-143.19;100.00;53775.09;4970211;28;20201;-77
2022/03/09 05:58:17;;;;;;;0.63;0.63;;;-3.20;99.90;;;-143.19;100.00;53775.09;4970616;28;20214;-74
2022/03/09 06:00:47;;;;;;;0.70;0.70;;;-3.20;99.90;;;-143.19;100.00;53775.09;4962204;28;20233;-74
2022/03/09 06:03:15;;;;;;;0.60;0.60;;;-3.30;99.90;;;-143.19;100.00;53775.09;4975110;28;20232;-75
2022/03/09 06:05:43;;;;;;;0.80;0.80;;;-3.20;99.90;;;-143.19;100.00;53775.09;4946852;28;20236;-75
2022/03/09 06:08:11;;;;;;;0.75;0.75;;;-3.20;99.90;;;-143.19;100.00;53775.09;4985555;28;20635;-74
2022/03/09 06:10:39;;;;;;;0.70;0.70;;;-3.20;99.90;;;-143.19;100.00;53775.09;4973611;28;20225;-74
2022/03/09 06:13:07;;;;;;;0.80;0.80;;;-3.20;99.90;;;-143.19;100.00;53775.09;4989136;28;20205;-73
2022/03/09 06:15:35;;;;;;;0.60;0.60;;;-3.10;99.90;;;-143.19;100.00;53775.09;4976154;28;20216;-75
2022/03/09 06:18:04;;;;;;;0.80;0.80;;;-3.20;99.90;;;-143.19;100.00;53775.09;4980180;28;20221;-75
2022/03/09 06:20:33;;;;;;;0.70;0.70;;;-3.20;99.90;;;-143.19;100.00;53775.09;4983940;28;20232;-75
2022/03/09 06:23:01;;;;;;;0.80;0.80;;;-3.20;99.90;;;-143.19;100.00;53775.09;4941631;28;20205;-75
2022/03/09 06:25:34;;;;;;;0.80;0.80;;;-3.10;99.90;;;-143.19;100.00;53775.09;4962052;28;20214;-75
2022/03/09 06:28:03;;;;;;;0.80;0.80;;;-3.20;99.90;;;-143.19;100.00;53775.09;4976609;28;20213;-76
2022/03/09 06:30:31;;;;;;;0.70;0.70;;;-3.20;99.90;;;-143.19;100.00;53775.09;4975701;28;20240;-75
2022/03/09 06:32:59;;;;;;;0.85;0.85;;;-3.00;99.90;;;-143.19;100.00;53775.09;4988144;28;20215;-76
2022/03/09 06:35:27;;;;;;;0.60;0.60;;;-2.60;99.90;;;-143.19;100.00;53775.09;4973867;28;20209;-76
2022/03/09 06:37:57;;;;;;;0.60;0.60;;;-2.60;99.90;;;-143.19;100.00;53775.09;4979912;28;20212;-74
2022/03/09 06:40:25;;;;;;;0.90;0.90;;;-2.80;99.90;;;-143.19;100.00;53775.09;4967890;28;20229;-73
2022/03/09 06:42:53;;;;;;;0.70;0.70;;;-2.80;99.90;;;-143.19;100.00;53775.09;4979362;28;20209;-73
2022/03/09 06:45:27;;;;;;;0.73;0.73;;;-2.70;99.90;;;-143.19;100.00;53775.09;4982922;28;20245;-73
2022/03/09 06:47:55;;;;;;;0.60;0.60;;;-2.80;99.90;;;-143.19;100.00;53775.09;4980528;28;20213;-73
2022/03/09 06:50:23;;;;;;;0.70;0.70;;;-2.80;99.90;;;-143.19;100.00;53775.09;4981797;28;20232;-73
2022/03/09 06:52:51;;;;;;;0.60;0.60;;;-2.80;99.90;;;-143.19;100.00;53775.09;4975084;28;20206;-73
2022/03/09 06:55:19;;;;;;;0.60;0.60;;;-2.60;99.90;;;-143.19;100.00;53775.09;4974801;28;20212;-74
2022/03/09 06:57:48;;;;;;;0.70;0.70;;;-2.40;99.90;;;-143.19;100.00;53775.09;4974287;28;20213;-73
2022/03/09 07:00:18;;;;;;;0.60;0.60;;;-2.40;99.90;;;-143.19;100.00;53775.09;4974887;28;20233;-73
2022/03/09 07:02:47;;;;;;;2.35;2.25;;;-2.30;99.90;;;-143.19;100.00;53775.09;4957304;28;20216;-74
2022/03/09 07:05:15;;;;;;;0.98;0.98;;;-2.30;99.90;;;-143.19;100.00;53775.09;4972861;28;20241;-73
2022/03/09 07:07:43;;;;;;;0.70;0.70;;;-2.20;99.90;;;-143.19;100.00;53775.09;4967530;28;20674;-72
2022/03/09 07:10:13;;;;;;;1.40;1.30;;;-2.10;99.90;;;-143.19;100.00;53775.09;4961336;28;20248;-73
2022/03/09 07:12:46;;;;;;;1.17;1.10;;;-1.90;99.90;;;-143.19;100.00;53775.09;4964628;28;20576;-73
2022/03/09 07:15:15;;;;;;;0.90;0.90;;;-1.80;99.90;;;-143.19;100.00;53775.09;4968840;28;20216;-74
2022/03/09 07:17:46;;;;;;;1.20;1.10;;;-1.70;99.90;;;-143.19;100.00;53775.09;4971803;28;20221;-74
2022/03/09 07:20:15;;;;;;;1.02;1.00;;;-1.60;99.90;;;-143.19;100.00;53775.09;4950464;28;20236;-74
2022/03/09 07:22:45;;;;;;;1.08;1.08;;;-1.40;99.90;;;-143.19;100.00;53775.09;4966711;28;20213;-75
2022/03/09 07:25:14;;;;;;;0.77;0.77;;;-1.30;99.90;;;-143.19;100.00;53775.09;4967722;28;20248;-74
2022/03/09 07:27:43;;;;;;;1.00;1.00;;;-1.20;99.90;;;-143.19;100.00;53775.09;4966612;28;20201;-74
2022/03/09 07:30:11;;;;;;;0.70;0.70;;;-1.10;99.90;;;-143.19;100.00;53775.09;4967734;28;20232;-75
2022/03/09 07:32:41;;;;;;;1.00;1.00;;;-0.90;99.90;;;-143.19;100.00;53775.09;4968635;28;20213;-74
2022/03/09 07:35:22;;;;;;;0.70;0.70;;;-0.80;99.90;;;-143.19;100.00;53775.09;4966850;28;20212;-74
2022/03/09 07:37:51;;;;;;;0.90;0.90;;;-0.70;99.90;;;-143.19;100.00;53775.09;4960833;28;20206;-75
2022/03/09 07:40:21;;;;;;;0.90;0.90;;;-0.60;99.90;;;-143.19;100.00;53775.09;4968201;28;20230;-75
2022/03/09 07:42:49;;;;;;;0.80;0.80;;;-0.50;99.90;;;-143.19;100.00;53775.09;4968613;28;20197;-74
2022/03/09 07:45:17;;;;;;;0.70;0.70;;;-0.30;99.90;;;-143.19;100.00;53775.09;4967079;28;20241;-74
2022/03/09 07:47:45;;;;;;;0.90;0.90;;;-0.20;99.90;;;-143.19;100.00;53775.09;4969901;28;20201;-75
2022/03/09 07:50:14;;;;;;;0.90;0.90;;;-0.20;99.90;;;-143.19;100.00;53775.09;4967687;28;20245;-76
2022/03/09 07:52:41;;;;;;;1.10;1.08;;;0.00;99.90;;;-143.19;100.00;53775.09;4968350;28;20217;-76
2022/03/09 07:55:10;;;;;;;0.90;0.90;;;0.10;99.90;;;-143.19;100.00;53775.09;4970907;28;20209;-76
2022/03/09 07:57:38;;;;;;;0.80;0.80;;;0.10;99.90;;;-143.19;100.00;53775.09;4953943;28;20206;-74
2022/03/09 08:00:08;;;;;;;0.85;0.85;;;0.20;99.90;;;-143.19;100.00;53775.09;4970042;28;20244;-75
2022/03/09 08:02:43;;;;;;;0.80;0.80;;;0.20;99.90;;;-143.19;100.00;53775.09;4969127;28;20209;-74
2022/03/09 08:05:12;;;;;;;0.90;0.90;;;0.30;99.90;;;-143.19;100.00;53775.09;4962235;28;20225;-75
2022/03/09 08:07:45;;;;;;;1.08;1.00;;;0.40;99.90;;;-143.19;100.00;53775.09;4970707;28;20204;-74
2022/03/09 08:10:14;;;;;;;1.13;1.13;;;0.50;99.90;;;-143.19;100.00;53775.09;4953721;28;20229;-74
2022/03/09 08:12:43;;;;;;;1.00;1.00;;;0.60;99.90;;;-143.19;100.00;53775.09;4968631;28;20217;-75
2022/03/09 08:15:11;;;;;;;1.40;1.30;;;0.70;99.90;;;-143.19;100.00;53775.09;4968792;28;20209;-75
2022/03/09 08:17:42;;;;;;;0.90;0.90;;;0.70;99.90;;;-143.19;100.00;53775.09;4967044;28;20217;-76
2022/03/09 08:20:12;;;;;;;1.05;0.98;;;0.90;99.90;;;-143.19;100.00;53775.09;4968553;28;20236;-75
2022/03/09 08:22:44;;;;;;;0.90;0.90;;;0.90;99.90;;;-143.19;100.00;53775.09;4969742;28;20220;-75
2022/03/09 08:25:16;;;;;;;1.13;1.10;;;1.20;99.90;;;-143.19;100.00;53775.09;4968609;28;20241;-74
2022/03/09 08:27:44;;;;;;;0.85;0.85;;;1.50;99.90;;;-143.19;100.00;53775.09;4968624;28;20205;-73
2022/03/09 08:30:13;;;;;;;1.67;1.17;;;1.30;99.90;;;-143.19;100.00;53775.09;4968906;28;20240;-73
2022/03/09 08:35:34;;;;;;;0.80;0.80;;;1.30;99.90;;;-143.19;100.00;53775.09;4930325;29;20227;-82
2022/03/09 08:38:02;;;;;;;1.00;0.90;;;1.40;99.90;;;-143.19;100.00;53775.09;4916039;29;20210;-82
2022/03/09 08:40:30;;;;;;;1.10;1.00;;;1.40;99.90;;;-143.19;100.00;53775.09;4914829;29;20237;-84
2022/03/09 08:42:59;;;;;;;1.50;1.40;;;1.50;99.90;;;-143.19;100.00;53775.09;4926878;29;20222;-84
2022/03/09 08:45:27;;;;;;;1.17;1.08;;;1.60;99.90;;;-143.19;100.00;53775.09;4928127;29;20242;-84
2022/03/09 08:47:55;;;;;;;1.30;1.20;;;1.60;99.90;;;-143.19;100.00;53775.09;4930845;29;20203;-83
2022/03/09 08:50:23;;;;;;;1.27;1.17;;;1.60;99.90;;;-143.19;100.00;53775.09;4933142;29;20245;-85
2022/03/09 08:52:59;;;;;;;1.35;1.17;;;1.70;99.90;;;-143.19;100.00;53775.09;4913936;29;20573;-85
2022/03/09 08:55:27;;;;;;;0.80;0.80;;;1.70;99.90;;;-143.19;100.00;53775.09;4928270;29;20206;-84
2022/03/09 08:57:56;;;;;;;0.40;0.40;;;1.80;99.90;;;-143.19;100.00;53775.09;4936213;29;20207;-84
2022/03/09 09:00:24;;;;;;;0.70;0.70;;;1.90;99.90;;;-143.19;100.00;53775.09;4933647;29;20233;-81
2022/03/09 09:02:52;;;;;;;1.00;1.00;;;2.00;99.90;;;-143.19;100.00;53775.09;4934552;29;20210;-83
2022/03/09 09:05:22;;;;;;;0.82;0.77;;;2.00;99.90;;;-143.19;100.00;53775.09;4931992;29;20226;-82
2022/03/09 09:07:50;;;;;;;0.90;0.80;;;2.10;99.90;;;-143.19;100.00;53775.09;4926315;29;20202;-82
2022/03/09 09:10:18;;;;;;;0.60;0.60;;;2.30;99.90;;;-143.19;100.00;53775.09;4919103;29;20242;-82
2022/03/09 09:12:46;;;;;;;0.93;0.90;;;2.40;99.90;;;-143.19;100.00;53775.09;4932744;29;20210;-82
2022/03/09 09:15:15;;;;;;;0.75;0.75;;;2.40;99.90;;;-143.19;100.00;53775.09;4934883;29;20210;-81
2022/03/09 09:17:43;;;;;;;0.55;0.55;;;2.50;99.90;;;-143.19;100.00;53775.09;4934287;29;20206;-84
2022/03/09 09:20:31;;;;;;;0.70;0.70;;;2.60;99.90;;;-143.19;100.00;53775.09;4935564;29;20590;-83
2022/03/09 09:23:00;;;;;;;0.60;0.60;;;2.80;99.90;;;-143.19;100.00;53775.09;4918467;29;20206;-83
2022/03/09 09:25:36;;;;;;;0.73;0.73;;;3.00;99.90;;;-143.19;100.00;53775.09;4937217;29;20299;-84
2022/03/09 09:28:05;;;;;;;0.90;0.85;;;3.20;99.90;;;-143.19;100.00;53775.09;4953854;28;20213;-83
2022/03/09 09:30:34;;;;;;;2.05;1.90;;;3.20;99.90;;;-143.19;100.00;53775.09;4952430;28;20226;-85
2022/03/09 09:33:02;;;;;;;0.90;0.77;;;3.30;99.90;;;-143.19;100.00;53775.09;4937280;29;20225;-82
2022/03/09 09:35:31;;;;;;;0.77;0.77;;;3.30;99.90;;;-143.19;100.00;53775.09;4944811;29;20218;-82
2022/03/09 09:38:08;;;;;;;0.68;0.68;;;3.50;99.90;;;-143.19;100.00;53775.09;4935867;29;20240;-83
2022/03/09 09:40:45;;;;;;;1.25;1.05;;;3.60;99.90;;;-143.19;100.00;53775.09;4929958;29;20237;-84
2022/03/09 09:43:15;;;;;;;0.80;0.68;;;3.70;99.90;;;-143.19;100.00;53775.09;4936950;29;20206;-85
2022/03/09 09:45:44;;;;;;;1.00;0.90;;;3.80;99.90;;;-143.19;100.00;53775.09;4930549;29;20246;-84
2022/03/09 09:48:13;;;;;;;0.93;0.93;;;3.80;99.90;;;-143.19;100.00;53775.09;4936381;29;20211;-84
2022/03/09 09:50:43;;;;;;;0.60;0.60;;;3.80;99.90;;;-143.19;100.00;53775.09;4938499;29;20226;-84
2022/03/09 09:53:13;;;;;;;1.40;1.25;;;3.80;99.90;;;-143.19;100.00;53775.09;4919801;29;20210;-84
2022/03/09 09:55:45;;;;;;;0.88;0.80;;;4.10;99.90;;;-143.19;100.00;53775.09;4936119;29;20284;-84
2022/03/09 09:58:19;;;;;;;1.55;1.25;;;4.20;99.90;;;-143.19;100.00;53775.09;4939654;29;20214;-83
2022/03/09 10:00:48;;;;;;;1.40;1.20;;;4.30;99.90;;;-143.19;100.00;53775.09;4915339;29;20223;-83
2022/03/09 10:03:16;;;;;;;0.80;0.80;;;4.40;99.90;;;-143.19;100.00;53775.09;4934842;29;20211;-83
2022/03/09 10:05:45;;;;;;;1.13;0.98;;;4.40;99.90;;;-143.19;100.00;53775.09;4949006;28;20223;-83
2022/03/09 10:08:16;;;;;;;1.00;0.90;;;4.60;99.90;;;-143.19;100.00;53775.09;4933758;29;20591;-83
2022/03/09 10:10:56;;;;;;;1.10;1.00;;;4.80;99.90;;;-143.19;100.00;53775.09;4917810;29;20234;-83
2022/03/09 10:13:29;;;;;;;0.85;0.80;;;5.00;99.90;;;-143.19;100.00;53775.09;4935263;29;20209;-84